createdAt,value
2022-10-24T00:01:21.906Z,2.07
2022-10-24T00:03:49.412Z,1.80
2022-10-24T00:06:17.479Z,1.90
2022-10-24T00:08:46.329Z,1.83
2022-10-24T00:11:15.350Z,2.10
2022-10-24T00:13:43.375Z,1.67
2022-10-24T00:16:10.930Z,1.50
2022-10-24T00:18:38.615Z,1.40
2022-10-24T00:21:06.324Z,1.30
2022-10-24T00:23:34.143Z,1.43
2022-10-24T00:26:04.291Z,1.20
2022-10-24T00:28:32.453Z,1.27
2022-10-24T00:30:59.942Z,1.10
2022-10-24T00:33:27.595Z,1.10
2022-10-24T00:35:55.238Z,1.40
2022-10-24T00:38:22.797Z,1.20
2022-10-24T00:40:50.244Z,1.10
2022-10-24T00:43:20.013Z,1.10
2022-10-24T00:45:49.149Z,1.20
2022-10-24T00:48:20.354Z,1.27
2022-10-24T00:50:48.050Z,1.20
2022-10-24T00:53:15.855Z,1.17
2022-10-24T00:55:43.922Z,1.00
2022-10-24T00:58:12.158Z,0.90
2022-10-24T01:00:41.024Z,0.70
2022-10-24T01:03:08.685Z,1.20
2022-10-24T01:05:41.487Z,1.20
2022-10-24T01:08:13.288Z,1.10
2022-10-24T01:10:44.925Z,0.90
2022-10-24T01:13:18.269Z,0.83
2022-10-24T01:15:50.129Z,1.07
2022-10-24T01:18:21.076Z,0.97
2022-10-24T01:20:57.421Z,1.10
2022-10-24T01:23:39.764Z,1.00
2022-10-24T01:26:11.634Z,1.50
2022-10-24T01:28:41.976Z,0.90
2022-10-24T01:31:12.469Z,1.03
2022-10-24T01:33:41.541Z,0.87
2022-10-24T01:36:10.230Z,0.90
2022-10-24T01:38:41.985Z,0.90
2022-10-24T01:41:12.207Z,0.93
2022-10-24T01:43:41.964Z,0.90
2022-10-24T01:46:12.449Z,0.80
2022-10-24T01:48:42.176Z,1.03
2022-10-24T01:51:11.324Z,1.30
2022-10-24T01:53:39.582Z,0.77
2022-10-24T01:56:07.718Z,1.00
2022-10-24T01:58:35.263Z,1.17
2022-10-24T02:01:04.411Z,1.10
2022-10-24T02:03:35.345Z,1.00
2022-10-24T02:06:05.831Z,1.03
2022-10-24T02:08:35.095Z,1.00
2022-10-24T02:11:04.750Z,1.00
2022-10-24T02:13:35.176Z,1.30
2022-10-24T02:16:03.788Z,1.50
2022-10-24T02:18:33.815Z,1.00
2022-10-24T02:21:07.137Z,1.30
2022-10-24T02:23:37.378Z,1.03
2022-10-24T02:26:06.641Z,1.00
2022-10-24T02:28:37.697Z,1.13
2022-10-24T02:31:07.998Z,0.90
2022-10-24T02:33:39.082Z,1.10
2022-10-24T02:36:07.883Z,0.93
2022-10-24T02:38:36.122Z,0.80
2022-10-24T02:41:05.462Z,0.80
2022-10-24T02:43:33.855Z,1.33
2022-10-24T02:46:01.481Z,0.87
2022-10-24T02:48:30.084Z,0.93
2022-10-24T02:50:58.968Z,1.27
2022-10-24T02:53:26.644Z,1.30
2022-10-24T02:55:54.140Z,1.03
2022-10-24T02:58:21.600Z,1.20
2022-10-24T03:00:49.078Z,1.40
2022-10-24T03:03:16.546Z,1.30
2022-10-24T03:05:43.990Z,1.50
2022-10-24T03:08:12.826Z,1.20
2022-10-24T03:10:40.272Z,0.90
2022-10-24T03:13:07.986Z,1.50
2022-10-24T03:15:35.515Z,1.27
2022-10-24T03:18:02.995Z,1.00
2022-10-24T03:20:30.466Z,1.10
2022-10-24T03:22:57.911Z,0.97
2022-10-24T03:25:26.669Z,1.03
2022-10-24T03:27:54.118Z,0.77
2022-10-24T03:30:21.642Z,1.20
2022-10-24T03:32:49.401Z,1.47
2022-10-24T03:35:17.386Z,1.20
2022-10-24T03:37:44.832Z,1.10
2022-10-24T03:40:12.715Z,1.23
2022-10-24T03:42:41.718Z,1.07
2022-10-24T03:45:09.788Z,1.37
2022-10-24T03:47:37.477Z,1.13
2022-10-24T03:50:05.273Z,1.43
2022-10-24T03:52:33.716Z,1.50
2022-10-24T03:55:01.161Z,1.60
2022-10-24T03:57:28.674Z,1.50
2022-10-24T03:59:57.531Z,1.40
2022-10-24T04:02:25.010Z,2.00
2022-10-24T04:04:52.430Z,2.30
2022-10-24T04:07:19.862Z,2.43
2022-10-24T04:09:47.304Z,2.53
2022-10-24T04:12:15.092Z,1.70
2022-10-24T04:14:42.589Z,1.60
2022-10-24T04:17:11.610Z,1.53
2022-10-24T04:19:39.159Z,2.03
2022-10-24T04:22:06.678Z,1.97
2022-10-24T04:24:34.322Z,1.57
2022-10-24T04:27:01.806Z,1.80
2022-10-24T04:29:29.253Z,1.80
2022-10-24T04:31:56.663Z,1.73
2022-10-24T04:34:25.660Z,1.77
2022-10-24T04:36:53.089Z,1.60
2022-10-24T04:39:20.909Z,1.90
2022-10-24T04:41:48.321Z,1.80
2022-10-24T04:44:15.794Z,1.67
2022-10-24T04:46:43.324Z,1.90
2022-10-24T04:49:11.086Z,1.83
2022-10-24T04:51:39.946Z,2.00
2022-10-24T04:54:08.346Z,1.70
2022-10-24T04:56:35.948Z,1.60
2022-10-24T04:59:03.649Z,1.50
2022-10-24T05:01:31.569Z,1.73
2022-10-24T05:03:59.143Z,1.80
2022-10-24T05:06:26.606Z,1.90
2022-10-24T05:08:55.435Z,1.53
2022-10-24T05:11:23.078Z,1.47
2022-10-24T05:13:50.610Z,1.57
2022-10-24T05:16:18.040Z,1.60
2022-10-24T05:18:45.470Z,1.60
2022-10-24T05:21:13.136Z,1.60
2022-10-24T05:23:40.587Z,1.60
2022-10-24T05:26:09.742Z,1.43
2022-10-24T05:28:37.178Z,1.70
2022-10-24T05:31:04.809Z,1.70
2022-10-24T05:33:32.276Z,1.87
2022-10-24T05:35:59.718Z,2.23
2022-10-24T05:38:27.224Z,1.97
2022-10-24T05:40:54.806Z,2.07
2022-10-24T05:43:23.582Z,2.70
2022-10-24T05:48:23.518Z,1.40
2022-10-24T05:50:50.974Z,1.40
2022-10-24T05:53:18.407Z,2.03
2022-10-24T05:55:45.909Z,1.33
2022-10-24T05:58:13.350Z,2.43
2022-10-24T06:00:42.163Z,1.40
2022-10-24T06:03:11.340Z,1.70
2022-10-24T06:05:38.768Z,1.33
2022-10-24T06:08:06.417Z,1.83
2022-10-24T06:10:33.945Z,1.80
2022-10-24T06:13:01.383Z,1.80
2022-10-24T06:15:29.039Z,1.80
2022-10-24T06:17:57.803Z,1.60
2022-10-24T06:20:25.307Z,1.70
2022-10-24T06:22:52.755Z,1.90
2022-10-24T06:25:20.729Z,3.73
2022-10-24T06:27:48.529Z,2.00
2022-10-24T06:30:16.078Z,1.87
2022-10-24T06:32:44.623Z,2.00
2022-10-24T06:35:15.801Z,2.10
2022-10-24T06:37:45.818Z,1.63
2022-10-24T06:40:15.596Z,2.03
2022-10-24T06:42:43.018Z,1.90
2022-10-24T06:45:10.897Z,1.90
2022-10-24T06:47:38.326Z,1.37
2022-10-24T06:50:06.217Z,1.87
2022-10-24T06:52:35.379Z,1.53
2022-10-24T06:55:02.802Z,1.90
2022-10-24T06:57:30.248Z,1.90
2022-10-24T06:59:57.703Z,2.60
2022-10-24T07:02:25.277Z,2.00
2022-10-24T07:04:52.832Z,1.97
2022-10-24T07:07:21.421Z,2.03
2022-10-24T07:09:54.130Z,1.83
2022-10-24T07:12:21.766Z,2.13
2022-10-24T07:14:49.302Z,2.20
2022-10-24T07:17:17.228Z,2.20
2022-10-24T07:19:44.793Z,2.07
2022-10-24T07:22:12.330Z,2.03
2022-10-24T07:24:39.778Z,1.67
2022-10-24T07:27:08.561Z,1.67
2022-10-24T07:29:36.107Z,1.70
2022-10-24T07:32:03.537Z,2.03
2022-10-24T07:34:31.312Z,1.60
2022-10-24T07:36:58.763Z,2.00
2022-10-24T07:39:26.229Z,2.00
2022-10-24T07:41:53.777Z,1.77
2022-10-24T07:44:22.588Z,1.90
2022-10-24T07:46:50.050Z,1.70
2022-10-24T07:49:17.545Z,2.20
2022-10-24T07:51:44.966Z,2.40
2022-10-24T07:54:12.449Z,3.50
2022-10-24T07:56:39.893Z,3.50
2022-10-24T07:59:09.619Z,2.43
2022-10-24T08:01:42.637Z,2.20
2022-10-24T08:04:10.536Z,2.30
2022-10-24T08:06:37.994Z,1.90
2022-10-24T08:09:05.509Z,2.23
2022-10-24T08:11:32.967Z,2.03
2022-10-24T08:14:02.270Z,1.90
2022-10-24T08:16:29.722Z,2.07
2022-10-24T08:18:59.156Z,1.90
2022-10-24T08:21:26.909Z,1.70
2022-10-24T08:23:55.091Z,1.77
2022-10-24T08:26:23.186Z,1.80
2022-10-24T08:28:50.706Z,2.13
2022-10-24T08:31:19.154Z,2.17
2022-10-24T08:33:47.598Z,2.00
2022-10-24T08:36:18.233Z,2.67
2022-10-24T08:38:45.722Z,2.37
2022-10-24T08:41:16.759Z,2.10
2022-10-24T08:43:44.228Z,2.20
2022-10-24T08:46:16.293Z,2.20
2022-10-24T08:48:46.430Z,1.90
2022-10-24T08:51:20.247Z,2.30
2022-10-24T08:53:51.341Z,2.60
2022-10-24T08:56:19.254Z,2.40
2022-10-24T08:58:47.575Z,2.33
2022-10-24T09:01:17.822Z,2.17
2022-10-24T09:04:01.343Z,2.53
2022-10-24T09:06:29.747Z,2.50
2022-10-24T09:08:59.787Z,2.20
2022-10-24T09:11:31.744Z,1.90
2022-10-24T09:14:01.852Z,2.10
2022-10-24T09:16:29.456Z,1.97
2022-10-24T09:18:58.247Z,2.30
2022-10-24T09:21:26.277Z,1.90
2022-10-24T09:23:53.910Z,2.50
2022-10-24T09:26:27.034Z,2.20
2022-10-24T09:28:56.886Z,2.00
2022-10-24T09:31:25.600Z,2.03
2022-10-24T09:33:53.428Z,2.20
2022-10-24T09:36:21.993Z,2.03
2022-10-24T09:38:49.752Z,2.13
2022-10-24T09:41:18.819Z,2.13
2022-10-24T09:43:53.289Z,2.37
2022-10-24T09:46:21.702Z,2.47
2022-10-24T09:48:56.701Z,2.20
2022-10-24T09:51:29.786Z,2.53
2022-10-24T09:54:03.916Z,2.20
2022-10-24T09:56:35.576Z,2.53
2022-10-24T09:59:17.938Z,2.07
2022-10-24T10:01:47.156Z,2.27
2022-10-24T10:04:17.352Z,2.33
2022-10-24T10:06:45.701Z,1.90
2022-10-24T10:09:14.306Z,2.00
2022-10-24T10:11:49.524Z,2.07
2022-10-24T10:14:29.990Z,2.33
2022-10-24T10:17:02.691Z,2.07
2022-10-24T10:19:33.541Z,1.80
2022-10-24T10:22:01.967Z,2.07
2022-10-24T10:24:37.994Z,1.90
2022-10-24T10:27:20.346Z,1.80
2022-10-24T10:29:47.784Z,1.90
2022-10-24T10:32:20.460Z,1.70
2022-10-24T10:34:48.467Z,1.63
2022-10-24T10:37:27.250Z,1.67
2022-10-24T10:40:08.333Z,1.80
2022-10-24T10:42:36.954Z,1.70
2022-10-24T10:45:09.787Z,1.63
2022-10-24T10:47:43.313Z,1.80
2022-10-24T10:52:51.550Z,1.60
2022-10-24T10:55:28.150Z,2.30
2022-10-24T10:58:00.365Z,1.77
2022-10-24T11:00:35.345Z,1.20
2022-10-24T11:03:07.334Z,1.30
2022-10-24T11:05:40.225Z,1.47
2022-10-24T11:08:18.468Z,1.10
2022-10-24T11:10:50.223Z,0.70
2022-10-24T11:13:21.144Z,0.60
2022-10-24T11:15:49.909Z,0.70
2022-10-24T11:18:22.665Z,0.70
2022-10-24T11:20:53.443Z,0.40
2022-10-24T11:23:23.928Z,0.73
2022-10-24T11:25:53.614Z,0.40
2022-10-24T11:28:23.936Z,0.33
2022-10-24T11:30:54.142Z,0.40
2022-10-24T11:33:24.988Z,0.30
2022-10-24T11:36:10.134Z,0.20
2022-10-24T11:38:39.741Z,0.23
2022-10-24T11:41:19.258Z,0.30
2022-10-24T11:43:47.770Z,0.30
2022-10-24T11:46:19.216Z,0.30
2022-10-24T11:48:49.686Z,0.10
2022-10-24T11:51:20.274Z,0.20
2022-10-24T11:53:54.257Z,0.27
2022-10-24T11:56:27.279Z,0.30
2022-10-24T11:58:57.333Z,0.20
2022-10-24T12:01:41.319Z,0.20
2022-10-24T12:04:20.706Z,0.20
2022-10-24T12:07:00.157Z,0.20
2022-10-24T12:09:35.721Z,0.20
2022-10-24T12:12:14.706Z,0.30
2022-10-24T12:14:46.817Z,0.30
2022-10-24T12:17:28.876Z,0.33
2022-10-24T12:19:58.026Z,0.40
2022-10-24T12:22:27.916Z,0.20
2022-10-24T12:25:03.538Z,0.30
2022-10-24T12:27:32.423Z,0.50
2022-10-24T12:30:04.165Z,0.40
2022-10-24T12:32:36.623Z,0.50
2022-10-24T12:35:31.300Z,2.27
2022-10-24T12:37:59.616Z,1.43
2022-10-24T12:40:46.002Z,0.90
2022-10-24T12:43:15.492Z,1.67
2022-10-24T12:45:43.011Z,1.63
2022-10-24T12:48:26.990Z,1.03
2022-10-24T12:50:59.210Z,0.83
2022-10-24T12:53:37.559Z,0.47
2022-10-24T12:56:09.945Z,0.30
2022-10-24T12:58:38.674Z,0.70
2022-10-24T13:01:07.369Z,0.70
2022-10-24T13:03:43.458Z,0.60
2022-10-24T13:06:15.018Z,0.47
2022-10-24T13:08:48.411Z,0.53
2022-10-24T13:11:26.266Z,0.67
2022-10-24T13:14:07.430Z,0.47
2022-10-24T13:16:38.634Z,0.40
2022-10-24T13:19:13.403Z,0.90
2022-10-24T13:21:49.297Z,0.40
2022-10-24T13:24:29.346Z,0.60
2022-10-24T13:27:17.570Z,0.60
2022-10-24T13:30:05.754Z,0.47
2022-10-24T13:32:35.919Z,0.70
2022-10-24T13:35:04.593Z,1.00
2022-10-24T13:37:36.774Z,0.97
2022-10-24T13:40:10.302Z,0.70
2022-10-24T13:42:40.153Z,0.40
2022-10-24T13:45:17.434Z,0.40
2022-10-24T13:47:46.136Z,0.50
2022-10-24T13:50:16.151Z,0.60
2022-10-24T13:52:49.518Z,0.43
2022-10-24T13:55:24.628Z,0.30
2022-10-24T13:57:53.778Z,0.33
2022-10-24T14:00:22.244Z,0.60
2022-10-24T14:02:50.099Z,0.47
2022-10-24T14:05:19.924Z,0.57
2022-10-24T14:07:48.776Z,0.33
2022-10-24T14:10:17.131Z,0.47
2022-10-24T14:12:45.513Z,0.40
2022-10-24T14:15:18.343Z,0.20
2022-10-24T14:17:54.045Z,0.40
2022-10-24T14:20:23.658Z,0.30
2022-10-24T14:22:52.442Z,0.33
2022-10-24T14:25:24.495Z,0.30
2022-10-24T14:27:52.504Z,0.40
2022-10-24T14:30:21.130Z,0.10
2022-10-24T14:32:48.889Z,0.27
2022-10-24T14:35:16.991Z,0.70
2022-10-24T14:37:44.891Z,0.33
2022-10-24T14:40:17.916Z,0.40
2022-10-24T14:42:46.827Z,0.20
2022-10-24T14:45:24.453Z,0.30
2022-10-24T14:47:53.486Z,0.40
2022-10-24T14:50:34.979Z,0.37
2022-10-24T14:53:02.451Z,0.20
2022-10-24T14:55:31.822Z,0.40
2022-10-24T14:57:59.409Z,0.40
2022-10-24T15:00:28.004Z,0.47
2022-10-24T15:02:57.323Z,0.30
2022-10-24T15:05:29.799Z,0.30
2022-10-24T15:10:49.706Z,0.40
2022-10-24T15:13:20.988Z,0.40
2022-10-24T15:15:50.842Z,0.60
2022-10-24T15:18:19.663Z,0.53
2022-10-24T15:20:47.828Z,0.50
2022-10-24T15:23:20.914Z,0.30
2022-10-24T15:25:58.062Z,0.50
2022-10-24T15:28:35.964Z,0.40
2022-10-24T15:31:03.585Z,0.40
2022-10-24T15:33:32.262Z,0.53
2022-10-24T15:35:59.766Z,0.40
2022-10-24T15:38:27.202Z,0.30
2022-10-24T15:40:58.180Z,0.50
2022-10-24T15:43:25.918Z,0.37
2022-10-24T15:45:53.410Z,0.47
2022-10-24T15:48:20.857Z,0.43
2022-10-24T15:50:48.424Z,0.60
2022-10-24T15:53:17.970Z,0.40
2022-10-24T15:55:46.961Z,0.50
2022-10-24T15:58:16.657Z,0.40
2022-10-24T16:00:44.426Z,0.47
2022-10-24T16:03:14.241Z,0.40
2022-10-24T16:05:42.766Z,0.63
2022-10-24T16:08:12.461Z,0.70
2022-10-24T16:10:39.877Z,0.50
2022-10-24T16:13:07.482Z,0.63
2022-10-24T16:15:37.483Z,0.70
2022-10-24T16:18:05.267Z,0.70
2022-10-24T16:20:33.346Z,0.90
2022-10-24T16:23:00.783Z,0.60
2022-10-24T16:25:29.454Z,0.80
2022-10-24T16:27:57.525Z,1.00
2022-10-24T16:30:26.206Z,1.00
2022-10-24T16:32:55.002Z,1.07
2022-10-24T16:35:23.743Z,0.80
2022-10-24T16:37:51.335Z,1.23
2022-10-24T16:40:19.208Z,0.80
2022-10-24T16:42:46.994Z,1.00
2022-10-24T16:45:14.617Z,1.80
2022-10-24T16:47:42.042Z,30.37
2022-10-24T16:50:12.930Z,19.80
2022-10-24T16:52:40.361Z,12.53
2022-10-24T16:55:08.094Z,4.87
2022-10-24T16:57:35.562Z,3.63
2022-10-24T17:00:03.279Z,4.17
2022-10-24T17:02:30.726Z,3.97
2022-10-24T17:04:58.254Z,6.80
2022-10-24T17:07:27.091Z,5.10
2022-10-24T17:09:54.715Z,6.33
2022-10-24T17:12:22.406Z,6.83
2022-10-24T17:14:49.972Z,2.83
2022-10-24T17:17:17.443Z,2.30
2022-10-24T17:19:48.191Z,2.73
2022-10-24T17:22:16.105Z,2.70
2022-10-24T17:24:45.234Z,2.17
2022-10-24T17:27:13.406Z,2.00
2022-10-24T17:29:41.377Z,2.00
2022-10-24T17:32:09.379Z,2.07
2022-10-24T17:34:37.115Z,1.80
2022-10-24T17:37:06.345Z,1.70
2022-10-24T17:39:36.115Z,1.90
2022-10-24T17:42:05.182Z,2.33
2022-10-24T17:44:32.821Z,2.07
2022-10-24T17:47:00.486Z,2.03
2022-10-24T17:49:28.010Z,1.90
2022-10-24T17:51:55.442Z,2.30
2022-10-24T17:54:22.955Z,1.90
2022-10-24T17:56:50.432Z,3.40
2022-10-24T17:59:21.797Z,4.60
2022-10-24T18:01:49.390Z,4.00
2022-10-24T18:04:16.979Z,5.33
2022-10-24T18:06:44.426Z,4.70
2022-10-24T18:09:11.969Z,3.87
2022-10-24T18:11:39.951Z,2.40
2022-10-24T18:14:07.467Z,2.93
2022-10-24T18:16:38.145Z,2.27
2022-10-24T18:19:05.905Z,2.50
2022-10-24T18:21:33.669Z,2.40
2022-10-24T18:24:01.175Z,2.63
2022-10-24T18:26:29.527Z,2.40
2022-10-24T18:28:57.970Z,2.47
2022-10-24T18:31:26.924Z,3.20
2022-10-24T18:33:56.073Z,8.40
2022-10-24T18:36:24.995Z,6.67
2022-10-24T18:38:52.756Z,5.77
2022-10-24T18:41:23.621Z,4.30
2022-10-24T18:43:51.316Z,3.17
2022-10-24T18:46:19.443Z,2.20
2022-10-24T18:48:47.169Z,2.40
2022-10-24T18:51:26.721Z,2.67
2022-10-24T18:53:54.573Z,5.70
2022-10-24T18:56:22.510Z,2.80
2022-10-24T18:58:54.671Z,2.43
2022-10-24T19:01:25.462Z,3.93
2022-10-24T19:03:53.786Z,3.03
2022-10-24T19:06:24.684Z,2.50
2022-10-24T19:08:52.298Z,2.90
2022-10-24T19:11:19.919Z,2.70
2022-10-24T19:13:47.489Z,3.23
2022-10-24T19:16:17.913Z,2.80
2022-10-24T19:18:50.044Z,2.67
2022-10-24T19:21:17.546Z,2.70
2022-10-24T19:23:46.336Z,2.50
2022-10-24T19:26:13.896Z,2.37
2022-10-24T19:28:41.676Z,2.73
2022-10-24T19:31:09.239Z,2.50
2022-10-24T19:33:37.153Z,2.17
2022-10-24T19:36:05.465Z,1.90
2022-10-24T19:38:32.983Z,1.90
2022-10-24T19:41:01.963Z,2.17
2022-10-24T19:43:31.020Z,2.20
2022-10-24T19:48:49.697Z,2.00
2022-10-24T19:51:18.355Z,1.93
2022-10-24T19:53:46.435Z,2.70
2022-10-24T19:56:16.684Z,2.50
2022-10-24T19:58:44.889Z,2.17
2022-10-24T20:01:13.431Z,2.80
2022-10-24T20:03:41.479Z,2.37
2022-10-24T20:06:08.978Z,1.87
2022-10-24T20:08:36.751Z,1.80
2022-10-24T20:11:04.534Z,1.80
2022-10-24T20:13:33.604Z,1.90
2022-10-24T20:16:02.470Z,1.80
2022-10-24T20:18:30.526Z,2.00
2022-10-24T20:20:58.066Z,2.00
2022-10-24T20:23:26.544Z,1.70
2022-10-24T20:25:58.402Z,1.63
2022-10-24T20:28:25.937Z,1.80
2022-10-24T20:30:55.168Z,1.73
2022-10-24T20:33:22.626Z,1.80
2022-10-24T20:35:50.288Z,1.90
2022-10-24T20:38:17.889Z,1.67
2022-10-24T20:40:45.425Z,1.87
2022-10-24T20:43:12.924Z,1.83
2022-10-24T20:45:40.534Z,1.53
2022-10-24T20:48:09.472Z,1.90
2022-10-24T20:50:37.123Z,1.77
2022-10-24T20:53:04.571Z,2.10
2022-10-24T20:55:43.448Z,2.03
2022-10-24T20:58:12.489Z,1.77
2022-10-24T21:03:15.109Z,1.83
2022-10-24T21:05:42.564Z,1.67
2022-10-24T21:08:09.971Z,2.27
2022-10-24T21:10:37.397Z,2.00
2022-10-24T21:13:05.194Z,1.93
2022-10-24T21:15:32.764Z,1.70
2022-10-24T21:18:00.242Z,1.40
2022-10-24T21:20:29.016Z,1.40
2022-10-24T21:22:56.472Z,1.80
2022-10-24T21:25:24.243Z,1.63
2022-10-24T21:27:51.670Z,1.40
2022-10-24T21:30:19.177Z,1.70
2022-10-24T21:32:46.812Z,1.57
2022-10-24T21:35:14.297Z,1.47
2022-10-24T21:37:43.271Z,1.43
2022-10-24T21:40:11.302Z,1.40
2022-10-24T21:42:39.060Z,1.47
2022-10-24T21:45:06.949Z,1.50
2022-10-24T21:47:34.734Z,1.40
2022-10-24T21:50:02.221Z,1.50
2022-10-24T21:52:29.671Z,1.30
2022-10-24T21:54:58.443Z,1.30
2022-10-24T21:57:25.855Z,2.10
2022-10-24T21:59:53.507Z,2.77
2022-10-24T22:02:21.068Z,1.90
2022-10-24T22:04:48.596Z,1.90
2022-10-24T22:07:16.121Z,1.70
2022-10-24T22:09:43.612Z,1.53
2022-10-24T22:12:12.410Z,1.67
2022-10-24T22:14:40.011Z,1.47
2022-10-24T22:17:07.871Z,1.27
2022-10-24T22:19:35.318Z,1.50
2022-10-24T22:22:02.763Z,1.27
2022-10-24T22:24:30.190Z,1.33
2022-10-24T22:26:57.613Z,1.53
2022-10-24T22:29:26.566Z,1.63
2022-10-24T22:31:54.332Z,1.67
2022-10-24T22:34:22.677Z,1.50
2022-10-24T22:36:57.759Z,1.17
2022-10-24T22:39:26.076Z,1.20
2022-10-24T22:41:54.201Z,1.10
2022-10-24T22:44:22.370Z,2.10
2022-10-24T22:47:04.981Z,1.23
2022-10-24T22:49:38.949Z,1.40
2022-10-24T22:52:06.830Z,1.37
2022-10-24T22:54:35.778Z,1.50
2022-10-24T22:57:03.589Z,1.50
2022-10-24T22:59:31.516Z,1.60
2022-10-24T23:02:01.385Z,1.37
2022-10-24T23:04:34.929Z,1.60
2022-10-24T23:07:08.827Z,1.70
2022-10-24T23:09:36.251Z,1.60
2022-10-24T23:12:06.248Z,1.47
2022-10-24T23:14:34.178Z,1.20
2022-10-24T23:17:01.758Z,1.73
2022-10-24T23:19:30.013Z,1.27
2022-10-24T23:21:59.226Z,1.40
2022-10-24T23:24:28.419Z,1.50
2022-10-24T23:27:12.073Z,1.30
2022-10-24T23:29:40.353Z,1.50
2022-10-24T23:32:14.175Z,1.40
2022-10-24T23:34:41.815Z,1.57
2022-10-24T23:37:10.849Z,1.30
2022-10-24T23:39:40.068Z,1.50
2022-10-24T23:42:08.038Z,1.30
2022-10-24T23:44:35.695Z,1.43
2022-10-24T23:47:06.332Z,1.50
2022-10-24T23:49:36.412Z,1.50
2022-10-24T23:52:06.360Z,1.47
2022-10-24T23:54:34.113Z,1.40
2022-10-24T23:57:03.318Z,1.57
2022-10-24T23:59:30.772Z,1.47
